Time,TemperatureF,DewpointF,PressureIn,WindDirection,WindDirectionDegrees,WindSpeedMPH,WindSpeedGustMPH,Humidity,HourlyPrecipIn,Conditions,Clouds,dailyrainin,SoftwareType,DateUTC
2013-08-04 00:03:00,66.0,61.0,29.83,SW,225,0.0,2.0,84,0.00,,,0.00,,2013-08-04 04:03:00,
2013-08-04 00:12:00,66.0,61.0,29.83,SW,225,0.0,2.0,84,0.00,,,0.00,,2013-08-04 04:12:00,
2013-08-04 00:22:00,66.0,61.0,29.83,SW,225,0.0,2.0,84,0.00,,,0.00,,2013-08-04 04:22:00,
2013-08-04 00:32:00,66.0,61.0,29.83,SW,225,0.0,2.0,84,0.00,,,0.00,,2013-08-04 04:32:00,
2013-08-04 00:42:00,66.0,61.0,29.83,SW,225,0.0,2.0,84,0.00,,,0.00,,2013-08-04 04:42:00,
2013-08-04 01:42:00,64.0,59.0,29.83,WSW,248,1.0,1.0,85,0.00,,,0.00,,2013-08-04 05:42:00,
2013-08-04 01:52:00,63.0,59.0,29.82,SSW,203,0.0,1.0,86,0.00,,,0.00,,2013-08-04 05:52:00,
2013-08-04 02:02:00,63.0,59.0,29.82,SSW,203,0.0,1.0,86,0.00,,,0.00,,2013-08-04 06:02:00,
2013-08-04 02:12:00,63.0,59.0,29.82,SSW,203,0.0,1.0,86,0.00,,,0.00,,2013-08-04 06:12:00,
2013-08-04 02:22:00,63.0,59.0,29.82,SSW,203,0.0,1.0,86,0.00,,,0.00,,2013-08-04 06:22:00,
2013-08-04 02:32:00,63.0,59.0,29.82,SSW,203,0.0,1.0,86,0.00,,,0.00,,2013-08-04 06:32:00,
2013-08-04 02:52:00,63.0,59.0,29.82,North,0,0.0,1.0,88,0.00,,,0.00,,2013-08-04 06:52:00,
2013-08-04 03:02:00,63.0,59.0,29.82,North,0,0.0,0.0,87,0.00,,,0.00,,2013-08-04 07:02:00,
2013-08-04 03:12:00,63.0,59.0,29.82,SSE,158,0.0,0.0,88,0.00,,,0.00,,2013-08-04 07:12:00,
2013-08-04 03:22:00,63.0,59.0,29.82,SSE,158,0.0,0.0,88,0.00,,,0.00,,2013-08-04 07:22:00,
2013-08-04 03:33:00,63.0,60.0,29.82,SW,225,0.0,0.0,89,0.00,,,0.00,,2013-08-04 07:33:00,
2013-08-04 03:43:00,63.0,60.0,29.82,SSE,158,0.0,0.0,89,0.00,,,0.00,,2013-08-04 07:43:00,
2013-08-04 03:53:00,63.0,60.0,29.82,NW,306,1.0,2.0,89,0.00,,,0.00,,2013-08-04 07:53:00,
2013-08-04 04:02:00,63.0,60.0,29.82,NW,306,1.0,2.0,89,0.00,,,0.00,,2013-08-04 08:02:00,
2013-08-04 04:10:00,62.0,59.0,29.82,North,354,1.0,2.0,89,0.00,,,0.00,,2013-08-04 08:10:00,
2013-08-04 04:12:00,63.0,60.0,29.82,SE,135,0.0,1.0,89,0.00,,,0.00,,2013-08-04 08:12:00,
2013-08-04 04:22:00,62.0,59.0,29.82,NW,315,0.0,1.0,89,0.00,,,0.00,,2013-08-04 08:22:00,
2013-08-04 04:33:00,62.0,59.0,29.82,North,354,1.0,2.0,89,0.00,,,0.00,,2013-08-04 08:33:00,
2013-08-04 04:43:00,62.0,59.0,29.82,North,354,1.0,2.0,89,0.00,,,0.00,,2013-08-04 08:43:00,
2013-08-04 04:53:00,62.0,59.0,29.82,North,354,1.0,2.0,89,0.00,,,0.00,,2013-08-04 08:53:00,
2013-08-04 05:02:00,62.0,59.0,29.82,North,354,1.0,2.0,89,0.00,,,0.00,,2013-08-04 09:02:00,
2013-08-04 05:22:00,61.0,58.0,29.82,NNW,338,2.0,2.0,89,0.00,,,0.00,,2013-08-04 09:22:00,
2013-08-04 05:32:00,61.0,58.0,29.82,West,281,0.0,2.0,89,0.00,,,0.00,,2013-08-04 09:32:00,
2013-08-04 05:43:00,61.0,58.0,29.82,West,281,0.0,2.0,89,0.00,,,0.00,,2013-08-04 09:43:00,
2013-08-04 05:52:00,61.0,58.0,29.82,West,281,0.0,2.0,89,0.00,,,0.00,,2013-08-04 09:52:00,
2013-08-04 06:02:00,61.0,58.0,29.82,West,281,0.0,2.0,89,0.00,,,0.00,,2013-08-04 10:02:00,
2013-08-04 06:12:00,60.0,57.0,29.83,NNE,23,0.0,0.0,90,0.00,,,0.00,,2013-08-04 10:12:00,
2013-08-04 06:22:00,60.0,57.0,29.83,NNW,338,1.0,1.0,90,0.00,,,0.00,,2013-08-04 10:22:00,
2013-08-04 06:32:00,60.0,57.0,29.84,NNW,338,0.0,1.0,90,0.00,,,0.00,,2013-08-04 10:32:00,
2013-08-04 06:43:00,60.0,57.0,29.84,NNW,343,1.0,1.0,90,0.00,,,0.00,,2013-08-04 10:43:00,
2013-08-04 06:53:00,60.0,57.0,29.84,NNW,343,1.0,1.0,90,0.00,,,0.00,,2013-08-04 10:53:00,
2013-08-04 07:02:00,60.0,57.0,29.84,West,270,2.0,2.0,90,0.00,,,0.00,,2013-08-04 11:02:00,
2013-08-04 07:12:00,59.0,56.0,29.85,SE,135,2.0,2.0,91,0.00,,,0.00,,2013-08-04 11:12:00,
2013-08-04 07:22:00,59.0,57.0,29.85,South,186,1.0,2.0,93,0.00,,,0.00,,2013-08-04 11:22:00,
2013-08-04 07:32:00,59.0,57.0,29.85,South,186,1.0,2.0,93,0.00,,,0.00,,2013-08-04 11:32:00,
2013-08-04 07:42:00,61.0,59.0,29.85,South,180,0.0,0.0,92,0.00,,,0.00,,2013-08-04 11:42:00,
2013-08-04 07:52:00,61.0,59.0,29.85,South,180,0.0,0.0,92,0.00,,,0.00,,2013-08-04 11:52:00,
2013-08-04 08:01:00,64.0,60.0,29.85,SSE,158,1.0,2.0,88,0.00,,,0.00,,2013-08-04 12:01:00,
2013-08-04 08:02:00,63.0,60.0,29.85,SE,135,1.0,1.0,91,0.00,,,0.00,,2013-08-04 12:02:00,
2013-08-04 08:13:00,64.0,61.0,29.85,SE,135,1.0,1.0,90,0.00,,,0.00,,2013-08-04 12:13:00,
2013-08-04 08:22:00,64.0,60.0,29.85,SSE,158,1.0,2.0,88,0.00,,,0.00,,2013-08-04 12:22:00,
2013-08-04 08:33:00,64.0,60.0,29.85,SSE,158,1.0,2.0,88,0.00,,,0.00,,2013-08-04 12:33:00,
2013-08-04 08:43:00,64.0,60.0,29.85,SSE,158,1.0,2.0,88,0.00,,,0.00,,2013-08-04 12:43:00,
2013-08-04 08:53:00,64.0,60.0,29.85,SSE,158,1.0,2.0,88,0.00,,,0.00,,2013-08-04 12:53:00,
2013-08-04 09:43:00,71.0,59.0,29.86,NNE,16,5.0,7.0,66,0.00,,,0.00,,2013-08-04 13:43:00,
2013-08-04 09:52:00,72.0,59.0,29.86,NW,315,2.0,9.0,63,0.00,,,0.00,,2013-08-04 13:52:00,
2013-08-04 10:02:00,73.0,59.0,29.86,NNW,328,4.0,7.0,61,0.00,,,0.00,,2013-08-04 14:02:00,
2013-08-04 10:12:00,74.0,59.0,29.86,NW,320,5.0,6.0,59,0.00,,,0.00,,2013-08-04 14:12:00,
2013-08-04 10:33:00,75.0,59.0,29.87,WNW,294,3.0,5.0,58,0.00,,,0.00,,2013-08-04 14:33:00,
2013-08-04 10:43:00,75.0,59.0,29.87,WNW,294,3.0,5.0,58,0.00,,,0.00,,2013-08-04 14:43:00,
2013-08-04 10:53:00,75.0,58.0,29.87,North,353,3.0,5.0,56,0.00,,,0.00,,2013-08-04 14:53:00,
2013-08-04 11:02:00,76.0,61.0,29.87,NNW,347,2.0,8.0,59,0.00,,,0.00,,2013-08-04 15:02:00,
2013-08-04 11:12:00,77.0,61.0,29.87,West,272,3.0,5.0,57,0.00,,,0.00,,2013-08-04 15:12:00,
2013-08-04 11:32:00,78.0,58.0,29.87,NNW,348,6.0,10.0,50,0.00,,,0.00,,2013-08-04 15:32:00,
2013-08-04 11:53:00,79.0,56.0,29.88,NNW,348,5.0,7.0,46,0.00,,,0.00,,2013-08-04 15:53:00,
2013-08-04 12:02:00,79.0,56.0,29.88,NE,45,4.0,11.0,46,0.00,,,0.00,,2013-08-04 16:02:00,
2013-08-04 12:12:00,79.0,56.0,29.88,NE,45,4.0,11.0,46,0.00,,,0.00,,2013-08-04 16:12:00,
2013-08-04 12:22:00,79.0,56.0,29.88,NE,45,4.0,11.0,46,0.00,,,0.00,,2013-08-04 16:22:00,
2013-08-04 13:31:00,82.0,57.0,29.86,NW,321,5.0,7.0,42,0.00,,,0.00,,2013-08-04 17:31:00,
2013-08-04 13:32:00,80.0,55.0,29.86,North,11,4.0,5.0,43,0.00,,,0.00,,2013-08-04 17:32:00,
2013-08-04 13:43:00,80.0,57.0,29.86,NNW,346,2.0,7.0,46,0.00,,,0.00,,2013-08-04 17:43:00,
2013-08-04 14:12:00,82.0,57.0,29.86,NW,321,5.0,7.0,42,0.00,,,0.00,,2013-08-04 18:12:00,
2013-08-04 14:23:00,82.0,57.0,29.86,NW,321,5.0,7.0,42,0.00,,,0.00,,2013-08-04 18:23:00,
2013-08-04 14:43:00,82.0,56.0,29.85,NNW,328,4.0,8.0,41,0.00,,,0.00,,2013-08-04 18:43:00,
2013-08-04 14:52:00,80.0,58.0,29.85,NE,48,4.0,7.0,47,0.00,,,0.00,,2013-08-04 18:52:00,
2013-08-04 15:02:00,79.0,58.0,29.85,North,10,4.0,8.0,48,0.00,,,0.00,,2013-08-04 19:02:00,
2013-08-04 15:12:00,79.0,58.0,29.85,North,10,4.0,8.0,48,0.00,,,0.00,,2013-08-04 19:12:00,
2013-08-04 15:22:00,79.0,58.0,29.85,North,10,4.0,8.0,48,0.00,,,0.00,,2013-08-04 19:22:00,
2013-08-04 15:33:00,79.0,57.0,29.85,NW,324,4.0,8.0,47,0.00,,,0.00,,2013-08-04 19:33:00,
2013-08-04 15:44:00,79.0,57.0,29.85,NW,324,4.0,8.0,47,0.00,,,0.00,,2013-08-04 19:44:00,
2013-08-04 15:53:00,79.0,57.0,29.85,NW,324,4.0,8.0,47,0.00,,,0.00,,2013-08-04 19:53:00,
2013-08-04 16:02:00,79.0,57.0,29.85,NW,324,4.0,8.0,47,0.00,,,0.00,,2013-08-04 20:02:00,
2013-08-04 16:12:00,82.0,56.0,29.85,NNE,22,7.0,10.0,41,0.00,,,0.00,,2013-08-04 20:12:00,
2013-08-04 16:22:00,82.0,56.0,29.85,NNE,22,7.0,10.0,41,0.00,,,0.00,,2013-08-04 20:22:00,
2013-08-04 16:31:00,82.0,57.0,29.85,NNW,348,7.0,8.0,43,0.00,,,0.00,,2013-08-04 20:31:00,
2013-08-04 16:32:00,82.0,56.0,29.85,NNE,22,7.0,10.0,41,0.00,,,0.00,,2013-08-04 20:32:00,
2013-08-04 16:43:00,82.0,57.0,29.85,NNW,348,6.0,9.0,42,0.00,,,0.00,,2013-08-04 20:43:00,
2013-08-04 16:53:00,82.0,57.0,29.85,NNW,348,7.0,8.0,43,0.00,,,0.00,,2013-08-04 20:53:00,
2013-08-04 17:02:00,82.0,57.0,29.85,NNW,348,7.0,8.0,43,0.00,,,0.00,,2013-08-04 21:02:00,
2013-08-04 17:12:00,82.0,57.0,29.85,NNW,348,7.0,8.0,43,0.00,,,0.00,,2013-08-04 21:12:00,
2013-08-04 17:22:00,82.0,57.0,29.85,NNW,348,7.0,8.0,43,0.00,,,0.00,,2013-08-04 21:22:00,
2013-08-04 17:53:00,79.0,56.0,29.85,NNW,338,4.0,6.0,46,0.00,,,0.00,,2013-08-04 21:53:00,
2013-08-04 18:02:00,79.0,56.0,29.85,NNW,338,4.0,6.0,46,0.00,,,0.00,,2013-08-04 22:02:00,
2013-08-04 18:12:00,80.0,56.0,29.86,NNW,332,2.0,6.0,44,0.00,,,0.00,,2013-08-04 22:12:00,
2013-08-04 18:22:00,78.0,56.0,29.86,NW,323,2.0,5.0,46,0.00,,,0.00,,2013-08-04 22:22:00,
2013-08-04 18:32:00,78.0,56.0,29.86,NW,323,2.0,5.0,46,0.00,,,0.00,,2013-08-04 22:32:00,
2013-08-04 18:43:00,78.0,56.0,29.86,North,359,3.0,6.0,47,0.00,,,0.00,,2013-08-04 22:43:00,
2013-08-04 18:53:00,78.0,56.0,29.86,North,359,3.0,6.0,47,0.00,,,0.00,,2013-08-04 22:53:00,
2013-08-04 19:02:00,78.0,56.0,29.86,North,359,3.0,6.0,47,0.00,,,0.00,,2013-08-04 23:02:00,
2013-08-04 19:12:00,78.0,56.0,29.86,NW,309,1.0,4.0,46,0.00,,,0.00,,2013-08-04 23:12:00,
2013-08-04 19:23:00,77.0,55.0,29.86,North,2,2.0,5.0,46,0.00,,,0.00,,2013-08-04 23:23:00,
2013-08-04 19:32:00,77.0,55.0,29.86,North,7,4.0,4.0,46,0.00,,,0.00,,2013-08-04 23:32:00,
2013-08-04 19:43:00,76.0,53.0,29.87,NW,326,3.0,5.0,45,0.00,,,0.00,,2013-08-04 23:43:00,
2013-08-04 19:53:00,76.0,53.0,29.87,NW,326,3.0,5.0,45,0.00,,,0.00,,2013-08-04 23:53:00,
2013-08-04 20:02:00,76.0,53.0,29.87,NW,326,3.0,5.0,45,0.00,,,0.00,,2013-08-05 00:02:00,
2013-08-04 20:12:00,75.0,55.0,29.87,NNE,23,0.0,1.0,49,0.00,,,0.00,,2013-08-05 00:12:00,
2013-08-04 20:22:00,75.0,55.0,29.87,NNE,23,0.0,1.0,49,0.00,,,0.00,,2013-08-05 00:22:00,
2013-08-04 20:33:00,75.0,55.0,29.87,NNE,23,0.0,1.0,49,0.00,,,0.00,,2013-08-05 00:33:00,
2013-08-04 20:42:00,75.0,55.0,29.87,NNE,23,0.0,1.0,49,0.00,,,0.00,,2013-08-05 00:42:00,
2013-08-04 21:22:00,70.0,53.0,29.89,NW,315,2.0,3.0,55,0.00,,,0.00,,2013-08-05 01:22:00,
2013-08-04 21:33:00,68.0,53.0,29.90,NE,45,0.0,1.0,58,0.00,,,0.00,,2013-08-05 01:33:00,
2013-08-04 21:43:00,67.0,52.0,29.90,NNE,23,0.0,0.0,59,0.00,,,0.00,,2013-08-05 01:43:00,
2013-08-04 21:52:00,66.0,52.0,29.90,North,0,0.0,0.0,61,0.00,,,0.00,,2013-08-05 01:52:00,
2013-08-04 22:02:00,66.0,52.0,29.90,North,0,0.0,0.0,61,0.00,,,0.00,,2013-08-05 02:02:00,
2013-08-04 22:12:00,65.0,53.0,29.91,NNW,342,0.0,2.0,64,0.00,,,0.00,,2013-08-05 02:12:00,
2013-08-04 22:22:00,65.0,53.0,29.91,NNW,338,1.0,1.0,65,0.00,,,0.00,,2013-08-05 02:22:00,
2013-08-04 22:33:00,65.0,53.0,29.91,North,0,0.0,1.0,65,0.00,,,0.00,,2013-08-05 02:33:00,
2013-08-04 22:43:00,64.0,53.0,29.91,SE,135,0.0,0.0,67,0.00,,,0.00,,2013-08-05 02:43:00,
2013-08-04 22:53:00,64.0,53.0,29.91,SE,135,0.0,0.0,67,0.00,,,0.00,,2013-08-05 02:53:00,
2013-08-04 23:02:00,63.0,52.0,29.92,NNW,338,0.0,0.0,68,0.00,,,0.00,,2013-08-05 03:02:00,
2013-08-04 23:12:00,63.0,52.0,29.92,NNW,338,0.0,0.0,68,0.00,,,0.00,,2013-08-05 03:12:00,
2013-08-04 23:22:00,63.0,53.0,29.92,NW,322,2.0,3.0,69,0.00,,,0.00,,2013-08-05 03:22:00,
2013-08-04 23:32:00,63.0,53.0,29.92,NW,322,2.0,3.0,69,0.00,,,0.00,,2013-08-05 03:32:00,
2013-08-04 23:42:00,62.0,52.0,29.92,NW,322,1.0,2.0,69,0.00,,,0.00,,2013-08-05 03:42:00,
2013-08-04 23:53:00,61.0,53.0,29.92,SE,128,2.0,3.0,74,0.00,,,0.00,,2013-08-05 03:53:00,